Time;durP1;ratioP1;P1;durP2;ratioP2;P2;SDS_P1;SDS_P2;PMS_P1;PMS_P2;Temp;Humidity;BMP_temperature;BMP_pressure;BME280_temperature;BME280_humidity;BME280_pressure;Samples;Min_cycle;Max_cycle;Signal;HPM_P1;HPM_P2
2022/01/24 00:00:52;;;;;;;45.17;28.48;;;9.00;92.20;;;;;;5053423;28;20036;-76
2022/01/24 00:03:18;;;;;;;46.00;28.40;;;9.00;92.20;;;;;;5053868;28;20092;-76
2022/01/24 00:05:44;;;;;;;47.28;29.23;;;9.00;92.10;;;;;;5053261;28;20039;-76
2022/01/24 00:08:09;;;;;;;40.55;28.02;;;8.90;91.90;;;;;;5053465;28;20041;-76
2022/01/24 00:10:38;;;;;;;39.03;25.00;;;8.90;91.60;;;;;;5052928;28;20072;-76
2022/01/24 00:18:26;;;;;;;39.13;25.85;;;8.90;91.40;;;;;;5061561;28;20017;-77
2022/01/24 00:26:46;;;;;;;37.03;24.13;;;8.90;90.70;;;;;;5053068;28;20038;-77
2022/01/24 00:29:14;;;;;;;36.38;23.27;;;8.90;90.60;;;;;;5051899;28;20024;-77
2022/01/24 00:31:39;;;;;;;40.35;27.27;;;8.90;90.50;;;;;;5053031;28;20048;-77
2022/01/24 00:34:05;;;;;;;40.33;25.30;;;8.90;90.50;;;;;;5053255;28;20029;-76
2022/01/24 00:36:31;;;;;;;38.17;24.30;;;9.00;90.50;;;;;;5052855;28;20037;-77
2022/01/24 00:38:56;;;;;;;38.85;25.17;;;8.90;90.50;;;;;;5052996;28;20032;-76
2022/01/24 00:41:23;;;;;;;39.08;24.73;;;9.00;90.40;;;;;;5052205;28;20089;-77
2022/01/24 00:46:31;;;;;;;38.70;25.77;;;9.00;90.50;;;;;;5052777;28;20376;-77
2022/01/24 00:57:03;;;;;;;33.55;23.15;;;9.00;90.50;;;;;;5052981;28;20028;-76
2022/01/24 00:59:30;;;;;;;34.30;21.08;;;9.00;90.20;;;;;;5052263;28;20445;-76
2022/01/24 01:01:56;;;;;;;25.95;17.08;;;9.00;89.80;;;;;;5052546;28;20039;-76
2022/01/24 01:04:28;;;;;;;24.80;16.55;;;8.90;89.70;;;;;;5051614;28;20036;-76
2022/01/24 01:06:54;;;;;;;29.75;19.10;;;8.90;89.50;;;;;;5051175;28;20049;-76
2022/01/24 01:20:26;;;;;;;29.52;19.23;;;8.80;89.30;;;;;;5052015;28;20032;-75
2022/01/24 01:22:51;;;;;;;28.52;18.80;;;8.80;89.40;;;;;;5052973;28;20037;-75
2022/01/24 01:25:20;;;;;;;26.45;17.63;;;8.80;89.60;;;;;;5052218;28;20541;-75
2022/01/24 01:27:48;;;;;;;25.33;17.50;;;8.80;89.60;;;;;;5052649;28;20107;-76
2022/01/24 01:30:21;;;;;;;27.00;17.85;;;8.90;89.70;;;;;;5051511;28;20041;-76
2022/01/24 01:56:25;;;;;;;25.45;16.50;;;8.70;88.10;;;;;;5045430;28;20033;-76
2022/01/24 01:58:51;;;;;;;21.17;14.98;;;8.70;88.40;;;;;;5045512;28;20078;-76
2022/01/24 02:01:16;;;;;;;23.23;15.63;;;8.80;88.60;;;;;;5038986;28;20021;-76
2022/01/24 02:03:42;;;;;;;22.08;15.25;;;8.80;88.70;;;;;;5055596;28;20476;-76
2022/01/24 02:06:08;;;;;;;21.10;14.60;;;8.80;88.60;;;;;;5056178;28;20059;-76
2022/01/24 02:08:33;;;;;;;23.45;16.23;;;8.80;88.60;;;;;;5057165;28;20116;-75
2022/01/24 02:11:00;;;;;;;23.52;15.18;;;8.80;88.40;;;;;;5075044;28;20072;-76
2022/01/24 02:13:28;;;;;;;21.50;14.73;;;8.90;88.40;;;;;;5070069;28;20056;-77
2022/01/24 02:25:50;;;;;;;21.38;14.38;;;8.90;88.20;;;;;;5055403;28;20384;-77
2022/01/24 02:28:18;;;;;;;21.67;14.70;;;8.90;88.40;;;;;;5055052;28;20484;-77
2022/01/24 02:33:14;;;;;;;23.23;14.70;;;8.90;88.20;;;;;;5054509;28;20092;-77
2022/01/24 02:35:40;;;;;;;20.35;13.60;;;8.90;88.30;;;;;;5055157;28;20032;-78
2022/01/24 02:38:23;;;;;;;20.67;14.35;;;8.90;88.80;;;;;;5055380;28;20074;-77
2022/01/24 02:46:05;;;;;;;23.73;15.50;;;8.90;88.10;;;;;;5054687;28;20035;-77
2022/01/24 02:49:08;;;;;;;23.67;15.07;;;8.90;88.30;;;;;;5054900;28;20040;-77
2022/01/24 02:51:45;;;;;;;21.02;14.90;;;8.90;88.20;;;;;;5054923;28;20037;-78
2022/01/24 02:54:26;;;;;;;25.27;14.00;;;9.00;88.20;;;;;;5054396;28;20483;-78
2022/01/24 02:56:52;;;;;;;22.27;14.65;;;9.00;88.20;;;;;;5050070;28;20037;-76
2022/01/24 02:59:18;;;;;;;21.42;13.27;;;9.00;88.10;;;;;;5054458;28;20024;-76
2022/01/24 03:01:44;;;;;;;22.60;14.85;;;8.90;87.30;;;;;;5054236;28;20036;-76
2022/01/24 03:04:10;;;;;;;20.98;13.98;;;8.90;87.00;;;;;;5053779;28;20017;-76
2022/01/24 03:06:36;;;;;;;20.67;13.98;;;8.80;86.80;;;;;;5054761;28;20056;-76
2022/01/24 03:09:03;;;;;;;22.92;14.48;;;8.80;86.70;;;;;;5067087;28;20021;-74
2022/01/24 03:11:50;;;;;;;22.45;14.57;;;8.90;86.90;;;;;;5061310;28;20025;-77
2022/01/24 03:14:16;;;;;;;24.08;14.73;;;8.80;87.10;;;;;;5053951;28;20088;-76
2022/01/24 03:16:41;;;;;;;22.55;15.07;;;8.80;87.30;;;;;;5054803;28;20381;-76
2022/01/24 03:19:07;;;;;;;21.58;14.27;;;8.80;87.40;;;;;;5054212;28;20479;-76
2022/01/24 03:21:33;;;;;;;23.48;14.68;;;8.90;87.40;;;;;;5054261;28;20029;-76
2022/01/24 03:23:58;;;;;;;20.60;13.30;;;8.90;87.30;;;;;;5054078;28;20515;-77
2022/01/24 03:26:24;;;;;;;23.85;15.48;;;8.90;87.00;;;;;;5054157;28;20162;-75
2022/01/24 03:28:49;;;;;;;21.83;14.90;;;8.90;86.90;;;;;;5053967;28;20036;-74
2022/01/24 03:31:15;;;;;;;21.83;13.80;;;8.90;86.80;;;;;;5054054;28;20484;-75
2022/01/24 03:33:41;;;;;;;23.08;15.20;;;8.90;86.80;;;;;;5054242;28;20021;-73
2022/01/24 03:36:06;;;;;;;22.98;14.85;;;8.90;86.80;;;;;;5053679;28;20032;-74
2022/01/24 03:38:32;;;;;;;22.92;14.90;;;8.90;86.90;;;;;;5054013;28;20060;-75
2022/01/24 03:40:57;;;;;;;21.05;14.65;;;8.90;86.90;;;;;;5053839;28;20024;-75
2022/01/24 03:43:24;;;;;;;25.88;14.85;;;9.00;87.00;;;;;;5053900;28;20017;-75
2022/01/24 03:46:10;;;;;;;23.35;14.13;;;9.00;86.90;;;;;;5053740;28;20086;-75
2022/01/24 03:48:53;;;;;;;22.80;14.90;;;8.90;86.90;;;;;;5053418;28;20047;-74
2022/01/24 03:51:20;;;;;;;21.38;14.35;;;9.00;87.00;;;;;;5043882;28;20064;-75
2022/01/24 03:53:46;;;;;;;25.83;16.42;;;9.00;86.90;;;;;;5053848;28;20071;-75
2022/01/24 03:56:12;;;;;;;24.92;16.10;;;9.00;86.80;;;;;;5054098;28;20021;-75
2022/01/24 03:58:38;;;;;;;22.83;15.40;;;8.90;86.90;;;;;;5052996;28;20029;-75
2022/01/24 04:01:06;;;;;;;24.70;16.40;;;8.90;87.20;;;;;;5053999;28;20045;-75
2022/01/24 04:03:33;;;;;;;25.83;16.13;;;8.80;87.20;;;;;;5053722;28;20029;-75
2022/01/24 04:05:59;;;;;;;25.00;16.25;;;8.80;87.30;;;;;;5060870;28;20032;-75
2022/01/24 04:08:24;;;;;;;25.17;16.15;;;8.90;87.40;;;;;;5061185;28;20033;-75
2022/01/24 04:10:54;;;;;;;26.20;15.68;;;8.90;87.50;;;;;;5054843;28;20484;-75
2022/01/24 04:13:28;;;;;;;25.25;15.98;;;8.80;87.50;;;;;;5053244;28;20029;-75
2022/01/24 04:16:12;;;;;;;24.23;15.73;;;8.90;87.10;;;;;;5052791;28;20029;-75
2022/01/24 04:18:56;;;;;;;24.80;15.10;;;8.80;86.90;;;;;;5052676;28;20029;-74
2022/01/24 04:26:23;;;;;;;23.92;15.75;;;8.80;87.00;;;;;;5053188;28;20029;-76
2022/01/24 04:28:49;;;;;;;24.38;16.30;;;8.90;87.20;;;;;;5052490;28;20110;-75
2022/01/24 04:31:15;;;;;;;27.30;17.95;;;8.80;87.10;;;;;;5052029;28;20060;-76
2022/01/24 04:33:41;;;;;;;29.73;18.15;;;8.80;87.20;;;;;;5048369;28;20079;-76
2022/01/24 04:36:07;;;;;;;31.95;20.15;;;8.80;87.90;;;;;;5052424;28;20389;-76
2022/01/24 04:38:33;;;;;;;33.60;20.80;;;8.80;87.40;;;;;;5052914;28;20431;-75
2022/01/24 04:41:03;;;;;;;32.72;19.50;;;8.70;87.80;;;;;;5053096;28;20051;-75
2022/01/24 04:54:27;;;;;;;22.35;14.07;;;8.60;88.00;;;;;;5052874;28;20052;-75
2022/01/24 04:56:42;;;;;;;25.60;14.90;;;8.60;87.70;;;;;;5052959;28;20029;-76
2022/01/24 04:59:09;;;;;;;24.40;15.52;;;8.60;87.50;;;;;;5052672;28;20040;-77
2022/01/24 05:01:35;;;;;;;24.55;15.40;;;8.60;87.50;;;;;;5053495;28;20055;-77
2022/01/24 05:04:01;;;;;;;25.52;16.38;;;8.70;87.80;;;;;;5058257;28;20032;-75
2022/01/24 05:06:27;;;;;;;26.38;17.10;;;8.70;87.90;;;;;;5066307;28;20075;-77
2022/01/24 05:08:53;;;;;;;28.77;17.02;;;8.70;88.00;;;;;;5059226;28;20064;-76
2022/01/24 05:11:25;;;;;;;28.00;17.48;;;8.70;88.70;;;;;;5052918;28;20033;-77
2022/01/24 05:24:34;;;;;;;26.92;18.70;;;8.70;88.70;;;;;;5052633;28;20057;-76
2022/01/24 05:27:00;;;;;;;29.60;19.42;;;8.70;89.00;;;;;;5054005;28;20058;-75
2022/01/24 05:29:26;;;;;;;27.70;18.67;;;8.60;89.50;;;;;;5056384;28;20387;-75
2022/01/24 05:31:51;;;;;;;26.58;17.73;;;8.60;89.30;;;;;;5056327;28;20044;-75
2022/01/24 05:34:17;;;;;;;28.67;19.30;;;8.50;89.20;;;;;;5055771;28;20025;-75
2022/01/24 05:36:43;;;;;;;26.92;18.58;;;8.50;89.30;;;;;;5056234;28;20029;-75
2022/01/24 05:39:09;;;;;;;27.08;18.00;;;8.40;89.80;;;;;;5056400;28;20017;-75
2022/01/24 05:41:37;;;;;;;27.20;17.73;;;8.40;89.70;;;;;;5056375;28;20048;-75
2022/01/24 05:44:03;;;;;;;27.20;16.88;;;8.40;89.70;;;;;;5055337;28;20392;-74
2022/01/24 05:46:28;;;;;;;24.80;17.73;;;8.40;89.70;;;;;;5056516;28;20029;-76
2022/01/24 05:48:54;;;;;;;24.40;16.25;;;8.40;89.60;;;;;;5055968;28;20413;-74
2022/01/24 05:51:21;;;;;;;24.33;16.17;;;8.30;90.00;;;;;;5056435;28;20044;-75
2022/01/24 05:53:47;;;;;;;25.77;17.10;;;8.30;90.00;;;;;;5055449;28;20024;-75
2022/01/24 05:56:12;;;;;;;24.33;16.10;;;8.30;90.10;;;;;;5056167;28;20025;-75
2022/01/24 05:58:38;;;;;;;23.48;16.10;;;8.30;90.00;;;;;;5055558;28;20024;-76
2022/01/24 06:01:04;;;;;;;24.58;17.20;;;8.30;90.10;;;;;;5056406;28;20028;-73
2022/01/24 06:03:30;;;;;;;25.73;17.23;;;8.30;90.10;;;;;;5073085;28;20070;-76
2022/01/24 06:05:55;;;;;;;24.83;16.92;;;8.30;90.10;;;;;;5061048;28;20485;-76
2022/01/24 06:08:21;;;;;;;22.77;15.43;;;8.30;90.30;;;;;;5055804;28;20496;-74
2022/01/24 06:10:47;;;;;;;24.92;17.48;;;8.30;90.20;;;;;;5054835;28;20044;-75
2022/01/24 06:13:14;;;;;;;22.30;16.02;;;8.30;90.20;;;;;;5055597;28;20044;-75
2022/01/24 06:15:40;;;;;;;23.60;16.50;;;8.30;90.20;;;;;;5054324;28;20070;-75
2022/01/24 06:18:05;;;;;;;21.83;16.17;;;8.30;90.30;;;;;;5053901;28;20396;-75
2022/01/24 06:20:31;;;;;;;24.20;16.13;;;8.20;90.30;;;;;;5043473;28;20017;-75
2022/01/24 06:22:57;;;;;;;25.25;16.33;;;8.20;90.30;;;;;;5055948;28;20074;-75
2022/01/24 06:25:24;;;;;;;22.88;15.60;;;8.10;90.30;;;;;;5052289;28;20032;-75
2022/01/24 06:27:51;;;;;;;21.35;15.20;;;8.00;90.40;;;;;;5051092;28;20115;-75
2022/01/24 06:30:17;;;;;;;22.90;16.08;;;8.00;90.50;;;;;;5041935;28;20037;-75
2022/01/24 06:32:43;;;;;;;21.35;15.55;;;7.90;90.60;;;;;;5055091;28;20024;-75
2022/01/24 06:35:11;;;;;;;22.00;16.30;;;7.90;90.70;;;;;;5054729;28;20053;-77
2022/01/24 06:37:37;;;;;;;21.55;15.07;;;7.90;90.80;;;;;;5053979;28;20033;-79
2022/01/24 06:40:04;;;;;;;20.23;14.18;;;7.90;90.90;;;;;;5055137;28;20029;-78
2022/01/24 06:42:29;;;;;;;22.52;16.05;;;7.90;90.90;;;;;;5054338;28;20036;-78
2022/01/24 06:44:56;;;;;;;26.20;16.23;;;7.90;90.90;;;;;;5054955;28;20115;-78
2022/01/24 06:47:22;;;;;;;21.23;14.70;;;7.80;91.10;;;;;;5054635;28;20354;-77
2022/01/24 06:49:48;;;;;;;18.90;14.38;;;7.80;91.10;;;;;;5055262;28;20032;-77
2022/01/24 06:52:14;;;;;;;19.55;13.93;;;7.80;91.10;;;;;;5054909;28;20480;-77
2022/01/24 06:54:41;;;;;;;21.63;15.68;;;7.80;91.00;;;;;;5055420;28;20025;-80
2022/01/24 06:57:08;;;;;;;21.33;14.10;;;7.80;91.10;;;;;;5054909;28;20061;-81
2022/01/24 06:59:35;;;;;;;22.33;15.18;;;7.80;91.00;;;;;;5058081;28;20029;-81
2022/01/24 07:02:01;;;;;;;20.98;14.07;;;7.70;91.00;;;;;;5071831;28;20088;-81
2022/01/24 07:04:26;;;;;;;19.90;13.90;;;7.80;91.10;;;;;;5073301;28;20029;-80
2022/01/24 07:06:53;;;;;;;21.48;14.27;;;7.70;91.20;;;;;;5055738;28;20045;-81
2022/01/24 07:09:19;;;;;;;19.67;13.55;;;7.80;91.40;;;;;;5055607;28;20430;-81
2022/01/24 07:11:45;;;;;;;21.30;14.48;;;7.80;91.10;;;;;;5054377;28;20098;-82
2022/01/24 07:14:13;;;;;;;19.60;13.77;;;7.90;91.10;;;;;;5054800;28;20021;-82
2022/01/24 07:19:29;;;;;;;18.52;13.02;;;7.90;91.10;;;;;;5052683;28;20033;-82
2022/01/24 07:21:56;;;;;;;23.38;14.07;;;7.90;91.20;;;;;;5055205;28;20045;-83
2022/01/24 07:24:22;;;;;;;22.75;14.43;;;7.90;91.20;;;;;;5052796;28;20100;-83
2022/01/24 07:26:48;;;;;;;22.60;13.55;;;8.00;91.20;;;;;;5054739;28;20449;-83
2022/01/24 07:29:13;;;;;;;19.58;13.25;;;8.00;91.10;;;;;;5054736;28;20033;-83
2022/01/24 07:31:39;;;;;;;21.35;14.70;;;8.00;91.10;;;;;;5054168;28;20033;-81
2022/01/24 07:34:05;;;;;;;19.38;13.80;;;7.90;91.10;;;;;;5054027;28;20246;-84
2022/01/24 07:36:31;;;;;;;19.63;13.75;;;7.90;91.00;;;;;;5055144;28;20028;-83
2022/01/24 07:38:56;;;;;;;18.20;13.35;;;7.90;91.00;;;;;;5053255;28;20037;-83
2022/01/24 07:41:30;;;;;;;16.88;12.05;;;7.90;91.20;;;;;;5055053;28;20032;-82
2022/01/24 07:43:56;;;;;;;17.55;13.50;;;7.90;91.70;;;;;;5054623;28;20445;-84
2022/01/24 07:46:23;;;;;;;19.02;12.93;;;8.00;91.80;;;;;;5054552;28;20037;-87
2022/01/24 07:48:49;;;;;;;18.08;13.32;;;8.00;91.90;;;;;;5053881;28;20066;-83
2022/01/24 07:51:15;;;;;;;19.95;14.15;;;8.10;92.10;;;;;;5054277;28;20040;-83
2022/01/24 07:53:44;;;;;;;18.80;13.30;;;8.10;91.70;;;;;;5053659;28;20021;-82
2022/01/24 07:56:11;;;;;;;19.83;11.40;;;8.10;92.00;;;;;;5053821;28;20111;-79
2022/01/24 07:58:37;;;;;;;14.57;10.90;;;8.10;91.50;;;;;;5067405;28;20028;-80
2022/01/24 08:01:03;;;;;;;14.95;11.82;;;8.20;91.90;;;;;;5065389;28;20052;-81
2022/01/24 08:03:29;;;;;;;19.27;13.65;;;8.20;91.60;;;;;;5055346;28;20465;-81
2022/01/24 08:05:55;;;;;;;15.82;11.98;;;8.20;91.20;;;;;;5052320;28;20174;-82
2022/01/24 08:08:21;;;;;;;18.45;12.00;;;8.20;91.20;;;;;;5053241;28;20083;-82
2022/01/24 08:10:47;;;;;;;15.63;12.45;;;8.20;91.10;;;;;;5052654;28;20037;-83
2022/01/24 08:13:13;;;;;;;16.48;12.50;;;8.10;90.80;;;;;;5052312;28;20040;-83
2022/01/24 08:15:39;;;;;;;17.27;12.65;;;8.10;90.90;;;;;;5053134;28;20106;-86
2022/01/24 08:18:05;;;;;;;16.25;12.20;;;8.10;90.90;;;;;;5053304;28;20029;-82
2022/01/24 08:20:31;;;;;;;17.02;11.90;;;8.10;90.80;;;;;;5052839;28;20709;-82
2022/01/24 08:22:57;;;;;;;16.60;11.32;;;8.10;90.90;;;;;;5052921;28;20051;-83
2022/01/24 08:25:23;;;;;;;16.45;12.07;;;8.20;91.10;;;;;;5052835;28;20052;-86
2022/01/24 08:27:49;;;;;;;16.63;11.38;;;8.30;90.90;;;;;;5053353;28;20078;-79
2022/01/24 08:30:20;;;;;;;16.75;10.52;;;8.30;90.90;;;;;;5052588;28;20040;-81
2022/01/24 08:32:46;;;;;;;15.23;10.55;;;8.30;90.70;;;;;;5053658;28;20118;-80
2022/01/24 08:35:16;;;;;;;15.70;10.23;;;8.30;90.60;;;;;;5052539;28;20074;-82
2022/01/24 08:37:43;;;;;;;14.60;9.98;;;8.40;90.40;;;;;;5052821;28;20109;-81
2022/01/24 08:40:12;;;;;;;14.73;11.32;;;8.40;90.40;;;;;;5052821;28;20029;-80
2022/01/24 08:42:44;;;;;;;14.98;11.48;;;8.40;90.40;;;;;;5053464;28;20025;-81
2022/01/24 08:47:56;;;;;;;14.18;8.93;;;8.30;90.10;;;;;;5053342;28;20091;-81
2022/01/24 08:50:26;;;;;;;13.95;8.55;;;8.30;90.10;;;;;;5052818;28;20040;-81
2022/01/24 08:52:52;;;;;;;13.32;8.20;;;8.20;89.80;;;;;;5053539;28;20134;-81
2022/01/24 08:55:18;;;;;;;14.00;8.45;;;8.20;89.80;;;;;;5054037;28;20037;-79
2022/01/24 08:57:43;;;;;;;12.63;8.50;;;8.20;89.20;;;;;;5058755;28;20021;-78
2022/01/24 09:00:10;;;;;;;11.57;8.45;;;8.10;89.60;;;;;;5053895;28;20104;-79
2022/01/24 09:02:35;;;;;;;11.43;8.48;;;8.10;90.10;;;;;;5055608;28;20021;-77
2022/01/24 09:05:02;;;;;;;12.18;9.07;;;8.10;90.00;;;;;;5056849;28;20763;-76
2022/01/24 09:07:30;;;;;;;11.85;9.00;;;8.10;89.90;;;;;;5055997;28;20041;-79
2022/01/24 09:09:57;;;;;;;14.52;10.07;;;8.20;90.00;;;;;;5055790;28;20065;-82
2022/01/24 09:12:22;;;;;;;12.13;9.48;;;8.10;89.70;;;;;;5054104;28;20021;-81
2022/01/24 09:14:48;;;;;;;12.95;9.32;;;8.10;90.10;;;;;;5057016;28;20039;-79
2022/01/24 09:17:15;;;;;;;14.65;10.05;;;8.10;90.10;;;;;;5056961;28;20095;-81
2022/01/24 09:19:42;;;;;;;11.73;9.30;;;8.20;90.20;;;;;;5056867;28;20025;-82
2022/01/24 09:22:09;;;;;;;12.15;8.95;;;8.30;90.60;;;;;;5055854;28;20079;-82
2022/01/24 09:24:35;;;;;;;11.98;9.23;;;8.30;89.60;;;;;;5056642;28;20100;-80
2022/01/24 09:27:01;;;;;;;13.98;8.65;;;8.20;89.40;;;;;;5055572;28;20124;-82
2022/01/24 09:29:27;;;;;;;13.65;9.50;;;8.20;89.80;;;;;;5054292;28;20531;-81
2022/01/24 09:31:54;;;;;;;12.10;9.25;;;8.30;89.90;;;;;;5052089;28;20079;-83
2022/01/24 09:34:20;;;;;;;15.02;10.10;;;8.30;90.00;;;;;;5051091;28;20439;-82
2022/01/24 09:36:47;;;;;;;12.80;9.27;;;8.30;89.80;;;;;;5040855;28;20037;-85
2022/01/24 09:39:14;;;;;;;14.13;9.57;;;8.30;89.40;;;;;;5037859;28;20037;-85
2022/01/24 09:41:40;;;;;;;13.95;9.93;;;8.30;89.60;;;;;;5049781;28;20028;-86
2022/01/24 09:44:06;;;;;;;14.73;10.13;;;8.30;89.80;;;;;;5056537;28;20112;-81
2022/01/24 09:46:35;;;;;;;14.43;9.73;;;8.40;89.90;;;;;;5054135;28;20021;-83
2022/01/24 09:49:01;;;;;;;12.73;9.88;;;8.40;89.70;;;;;;5056386;28;20032;-80
2022/01/24 09:51:26;;;;;;;13.23;10.15;;;8.50;90.00;;;;;;5056987;28;20040;-80
2022/01/24 09:53:52;;;;;;;12.73;9.85;;;8.50;89.70;;;;;;5066527;28;20025;-79
2022/01/24 09:56:18;;;;;;;12.98;9.80;;;8.50;89.80;;;;;;5074672;28;20553;-80
2022/01/24 09:58:44;;;;;;;17.98;12.43;;;8.60;89.60;;;;;;5059525;28;20031;-80
2022/01/24 10:01:10;;;;;;;15.20;10.38;;;8.60;88.80;;;;;;5055222;28;20112;-80
2022/01/24 10:03:37;;;;;;;13.45;10.32;;;8.50;89.60;;;;;;5055972;28;20414;-79
2022/01/24 10:06:02;;;;;;;19.02;11.30;;;8.50;89.10;;;;;;5055341;28;20079;-79
2022/01/24 10:08:30;;;;;;;14.45;9.70;;;8.40;88.50;;;;;;5055022;28;20036;-79
2022/01/24 10:11:04;;;;;;;10.15;8.23;;;8.40;88.90;;;;;;5055921;28;20098;-79
2022/01/24 10:16:31;;;;;;;10.65;9.15;;;8.50;89.30;;;;;;5056043;28;20135;-79
2022/01/24 10:19:21;;;;;;;11.80;9.60;;;8.50;89.00;;;;;;5055219;28;20028;-80
2022/01/24 10:21:55;;;;;;;14.52;10.30;;;8.50;88.20;;;;;;5042622;28;20047;-79
2022/01/24 10:24:42;;;;;;;11.18;9.45;;;8.40;88.60;;;;;;5055183;28;20393;-80
2022/01/24 10:27:18;;;;;;;12.50;7.90;;;8.40;89.10;;;;;;5055222;28;20035;-80
2022/01/24 10:29:59;;;;;;;9.80;8.40;;;8.40;88.90;;;;;;5055540;28;20032;-80
2022/01/24 10:32:30;;;;;;;10.13;8.90;;;8.30;88.90;;;;;;5055303;28;20041;-79
2022/01/24 10:35:16;;;;;;;13.30;9.75;;;8.30;89.20;;;;;;5055280;28;20029;-80
2022/01/24 10:37:42;;;;;;;16.08;9.25;;;8.30;89.30;;;;;;5055499;28;20112;-80
2022/01/24 10:40:19;;;;;;;12.07;9.68;;;8.30;89.80;;;;;;5054450;28;20503;-80
2022/01/24 10:42:55;;;;;;;12.48;10.73;;;8.40;89.80;;;;;;5055018;28;20021;-80
2022/01/24 10:45:23;;;;;;;11.43;10.13;;;8.40;89.50;;;;;;5054216;28;20036;-79
2022/01/24 10:47:52;;;;;;;12.02;9.75;;;8.40;89.50;;;;;;5054700;28;20029;-80
2022/01/24 10:50:28;;;;;;;11.20;9.77;;;8.50;89.50;;;;;;5054781;28;20484;-80
2022/01/24 10:52:54;;;;;;;9.35;8.45;;;8.40;88.40;;;;;;5074940;28;20021;-77
2022/01/24 10:55:26;;;;;;;10.20;9.05;;;8.30;88.00;;;;;;5056605;28;20511;-79
2022/01/24 10:58:09;;;;;;;12.07;9.93;;;8.30;88.90;;;;;;5053652;28;20070;-78
2022/01/24 11:00:37;;;;;;;;;;;8.20;88.80;;;;;;5054290;28;20029;-79
2022/01/24 11:03:03;;;;;;;13.20;10.02;;;8.30;88.90;;;;;;5053260;28;20429;-78
2022/01/24 11:05:35;;;;;;;13.25;10.38;;;8.30;88.50;;;;;;5053858;28;20033;-78
2022/01/24 11:08:06;;;;;;;13.27;10.15;;;8.30;88.90;;;;;;5053288;28;20033;-77
2022/01/24 11:10:35;;;;;;;16.85;11.32;;;8.30;89.30;;;;;;5053639;28;20166;-81
2022/01/24 11:13:05;;;;;;;14.68;11.52;;;8.40;89.30;;;;;;5053529;28;20024;-83
2022/01/24 11:15:32;;;;;;;13.10;10.63;;;8.40;89.10;;;;;;5053911;28;20098;-84
2022/01/24 11:17:59;;;;;;;10.95;9.85;;;8.40;89.20;;;;;;5053183;28;20027;-84
2022/01/24 11:20:30;;;;;;;11.70;9.90;;;8.40;89.30;;;;;;5052349;28;20063;-78
2022/01/24 11:23:00;;;;;;;13.60;10.52;;;8.40;89.30;;;;;;5051527;28;20427;-83
2022/01/24 11:25:37;;;;;;;12.65;9.77;;;8.40;89.60;;;;;;5056213;28;20037;-82
2022/01/24 11:28:04;;;;;;;11.27;9.48;;;8.30;90.00;;;;;;5052721;28;20025;-81
2022/01/24 11:30:50;;;;;;;12.57;8.95;;;8.30;90.10;;;;;;5050989;28;20108;-82
2022/01/24 11:33:21;;;;;;;12.15;8.10;;;8.30;89.50;;;;;;5052209;28;20111;-81
2022/01/24 11:35:53;;;;;;;12.07;8.85;;;8.30;89.30;;;;;;5050850;28;20025;-81
2022/01/24 11:38:38;;;;;;;8.73;7.85;;;8.30;89.20;;;;;;5050089;28;20033;-84
2022/01/24 11:41:20;;;;;;;11.60;8.70;;;8.30;89.50;;;;;;5056929;28;20059;-82
2022/01/24 11:43:50;;;;;;;12.32;9.40;;;8.30;90.00;;;;;;5054561;28;20035;-86
2022/01/24 11:46:50;;;;;;;13.45;9.48;;;8.30;90.40;;;;;;5052536;28;20037;-84
2022/01/24 11:49:36;;;;;;;10.82;9.45;;;8.30;90.00;;;;;;5064290;28;20029;-85
2022/01/24 11:52:01;;;;;;;11.13;9.82;;;8.30;89.90;;;;;;5071320;28;20028;-82
2022/01/24 11:54:49;;;;;;;12.63;9.50;;;8.30;89.80;;;;;;5053173;28;20063;-83
2022/01/24 11:57:22;;;;;;;10.85;9.25;;;8.30;89.60;;;;;;5052273;28;20047;-79
2022/01/24 11:59:50;;;;;;;10.73;9.63;;;8.30;89.80;;;;;;5051873;28;20043;-79
2022/01/24 12:02:23;;;;;;;9.45;8.45;;;8.40;89.60;;;;;;5050441;28;20037;-78
2022/01/24 12:04:57;;;;;;;13.10;9.50;;;8.40;89.80;;;;;;5052139;28;20021;-78
2022/01/24 12:07:26;;;;;;;11.38;9.60;;;8.40;89.20;;;;;;5052631;28;20049;-80
2022/01/24 12:09:54;;;;;;;15.73;9.68;;;8.40;89.20;;;;;;5052943;28;20040;-82
2022/01/24 12:13:01;;;;;;;10.82;9.63;;;8.40;88.70;;;;;;5052318;28;20083;-80
2022/01/24 12:15:39;;;;;;;14.05;10.45;;;8.30;88.90;;;;;;5034169;28;20094;-82
2022/01/24 12:18:11;;;;;;;11.63;9.77;;;8.30;88.90;;;;;;5049902;28;20493;-82
2022/01/24 12:20:42;;;;;;;12.60;10.15;;;8.30;89.40;;;;;;5053376;28;20021;-82
2022/01/24 12:23:16;;;;;;;13.27;11.10;;;8.30;89.70;;;;;;5052044;28;20040;-81
2022/01/24 12:26:02;;;;;;;11.95;10.35;;;8.30;90.00;;;;;;5052622;28;20112;-83
2022/01/24 12:28:31;;;;;;;13.75;10.90;;;8.30;90.00;;;;;;5052096;28;20543;-82
2022/01/24 12:31:08;;;;;;;12.48;11.18;;;8.30;90.10;;;;;;5051294;28;20078;-82
2022/01/24 12:34:19;;;;;;;13.32;11.95;;;8.30;90.20;;;;;;5051886;28;20024;-83
2022/01/24 12:37:04;;;;;;;13.27;11.55;;;8.30;90.40;;;;;;5049632;28;20057;-84
2022/01/24 12:39:45;;;;;;;16.17;11.68;;;8.30;90.30;;;;;;5052695;28;20066;-84
2022/01/24 12:42:20;;;;;;;16.60;11.48;;;8.40;90.10;;;;;;5051638;28;20083;-84
2022/01/24 12:47:32;;;;;;;13.60;10.60;;;8.30;90.20;;;;;;5064851;28;20482;-84
2022/01/24 12:49:57;;;;;;;15.43;11.63;;;8.30;89.90;;;;;;5070174;28;20032;-84
2022/01/24 12:52:26;;;;;;;12.55;10.25;;;8.20;90.00;;;;;;5054057;28;20059;-83
2022/01/24 12:54:54;;;;;;;10.52;9.35;;;8.10;90.00;;;;;;5052821;28;20021;-84
2022/01/24 12:57:29;;;;;;;11.60;9.57;;;8.10;89.80;;;;;;5052031;28;20093;-82
2022/01/24 13:00:10;;;;;;;12.48;10.43;;;8.00;89.90;;;;;;5052182;28;20496;-82
2022/01/24 13:02:38;;;;;;;11.55;8.52;;;8.10;90.10;;;;;;5052428;28;20115;-82
2022/01/24 13:05:16;;;;;;;13.95;10.20;;;8.10;90.20;;;;;;5052440;28;20482;-82
2022/01/24 13:07:57;;;;;;;14.93;10.13;;;8.20;90.30;;;;;;5052065;28;20040;-83
2022/01/24 13:10:26;;;;;;;11.60;10.43;;;8.20;90.40;;;;;;5052384;28;20084;-83
2022/01/24 13:13:10;;;;;;;13.32;10.55;;;8.30;90.30;;;;;;5047735;28;20376;-82
2022/01/24 13:21:17;;;;;;;12.00;10.30;;;8.50;90.70;;;;;;5047081;28;20542;-85
2022/01/24 13:23:51;;;;;;;11.23;9.30;;;8.50;90.40;;;;;;5042943;28;20030;-84
2022/01/24 13:26:17;;;;;;;11.95;9.90;;;8.60;89.60;;;;;;5040338;28;20021;-79
2022/01/24 13:28:42;;;;;;;16.35;11.73;;;8.60;89.40;;;;;;5042088;28;21749;-78
2022/01/24 13:31:09;;;;;;;18.73;12.30;;;8.50;88.80;;;;;;5051062;28;20037;-79
2022/01/24 13:33:39;;;;;;;13.40;11.23;;;8.40;88.90;;;;;;5044563;28;20029;-79
2022/01/24 13:36:08;;;;;;;17.50;12.55;;;8.30;89.00;;;;;;5052607;28;20078;-79
2022/01/24 13:38:38;;;;;;;16.08;13.10;;;8.20;89.20;;;;;;5052699;28;20078;-79
2022/01/24 13:41:10;;;;;;;13.07;11.68;;;8.20;89.30;;;;;;5051254;28;20025;-78
2022/01/24 13:43:41;;;;;;;15.25;11.93;;;8.20;89.70;;;;;;5052556;28;20073;-76
2022/01/24 13:46:08;;;;;;;15.07;12.38;;;8.30;90.00;;;;;;5056897;28;20380;-78
2022/01/24 13:48:52;;;;;;;14.93;12.40;;;8.30;90.00;;;;;;5053818;28;20484;-79
2022/01/24 13:51:21;;;;;;;17.38;12.30;;;8.30;90.00;;;;;;5055300;28;20044;-79
2022/01/24 13:53:56;;;;;;;14.25;12.38;;;8.40;90.10;;;;;;5054887;28;20028;-79
2022/01/24 13:56:31;;;;;;;15.80;13.27;;;8.50;90.20;;;;;;5052824;28;20032;-78
2022/01/24 13:59:06;;;;;;;15.43;12.13;;;8.50;89.60;;;;;;5054497;28;20043;-79
2022/01/24 14:01:32;;;;;;;15.68;13.30;;;8.50;89.40;;;;;;5055058;28;20033;-79
2022/01/24 14:04:08;;;;;;;11.77;10.57;;;8.60;89.30;;;;;;5053960;28;20025;-78
2022/01/24 14:06:39;;;;;;;14.65;12.27;;;8.60;89.30;;;;;;5051407;28;20029;-77
2022/01/24 14:09:12;;;;;;;13.23;11.85;;;8.60;88.70;;;;;;5054707;28;20024;-77
2022/01/24 14:11:44;;;;;;;15.15;12.05;;;8.60;88.40;;;;;;5055541;28;20033;-79
2022/01/24 14:14:14;;;;;;;14.60;13.10;;;8.70;88.40;;;;;;5055013;28;20102;-81
2022/01/24 14:19:35;;;;;;;16.77;15.00;;;8.70;88.20;;;;;;5052135;28;20040;-82
2022/01/24 14:22:09;;;;;;;13.45;12.02;;;8.70;88.40;;;;;;5053979;28;20025;-82
2022/01/24 14:25:01;;;;;;;15.48;12.55;;;8.70;88.40;;;;;;5054338;28;20025;-80
2022/01/24 14:27:45;;;;;;;13.55;12.13;;;8.80;88.40;;;;;;5053872;28;20029;-78
2022/01/24 14:30:25;;;;;;;15.50;13.82;;;8.80;88.30;;;;;;5053187;28;20028;-81
2022/01/24 14:33:03;;;;;;;15.88;14.20;;;8.80;87.90;;;;;;5055037;28;20419;-82
2022/01/24 14:35:35;;;;;;;18.23;13.85;;;8.80;87.10;;;;;;5054868;28;20427;-89
2022/01/24 14:38:01;;;;;;;15.02;13.27;;;8.80;87.90;;;;;;5053364;28;20120;-86
2022/01/24 14:40:50;;;;;;;16.88;13.68;;;8.80;88.00;;;;;;5061305;28;20056;-87
2022/01/24 14:46:09;;;;;;;13.50;12.18;;;8.90;87.30;;;;;;5056889;28;20040;-83
2022/01/24 14:48:44;;;;;;;19.08;13.60;;;8.90;87.70;;;;;;5054044;28;20048;-82
2022/01/24 14:51:10;;;;;;;13.63;11.45;;;8.90;87.80;;;;;;5054268;28;20028;-83
2022/01/24 14:53:36;;;;;;;18.38;13.07;;;8.90;88.10;;;;;;5054979;28;20024;-84
2022/01/24 14:56:02;;;;;;;14.82;13.30;;;8.90;88.40;;;;;;5056575;28;20136;-82